• Join FlightAware (Why Join?)
  • Login
  • US Flag 
08:04AM EDT


 

Airport Tracker/Info


-or-


 

Live Flight TrackerFlight Track Log ✈ UCA3599 ✈ 8 de Nov de 2013 ✈ KBGM - KIAD

Flight Track Log - Related Links

Times and Time Zones

All times are in EST time to prevent confusion due to time zone crossing. See the UCA3599 flight status page for this flight to view local times or setup timezone preferences in your user account.

Time Position Orientation Groundspeed Altitude Reporting Facility
EST Latitude Longitude Course Direction KTS MPH feet Rate Location/Type
06:14AM 42.1833 -76.0378 208° Southwest 253 291 4,100  Level New York Center
06:15AM 42.1400 -76.0761 213° Southwest 248 285 5,800 1,500 Climbing New York Center
06:16AM 42.1008 -76.1122 214° Southwest 214 246 7,200 1,440 Climbing New York Center
06:17AM 42.0597 -76.1481 213° Southwest 190 219 8,700 1,560 Climbing New York Center
06:18AM 42.0119 -76.1914 214° Southwest 190 219 10,300 1,260 Climbing New York Center
06:19AM 41.9750 -76.2247 214° Southwest 182 209 11,300 780 Climbing New York Center
06:20AM 41.7244 -76.2093 208° Southwest  Level Estimated
06:20AM 41.9275 -76.2653 212° Southwest 189 217 12,000  Level New York Center
06:21AM 41.8711 -76.3136 213° Southwest 209 241 13,000 960 Climbing New York Center
06:22AM 41.8192 -76.3539 210° Southwest 222 255 14,000 1,020 Climbing New York Center
06:23AM 41.7597 -76.3767 196° South 222 255 15,100 960 Climbing New York Center
06:24AM 41.7067 -76.3972 196° South 222 255 16,000 420 Climbing New York Center
06:25AM 41.6408 -76.4278 199° South 234 269 16,000  Level New York Center
06:26AM 41.5731 -76.4525 195° South 248 285 16,000  Level New York Center
06:27AM 41.5047 -76.4828 198° South 253 291 16,000  Level New York Center
06:28AM 41.4414 -76.5050 195° South 253 291 16,000  Level New York Center
06:29AM 41.3731 -76.5381 200° South 258 297 16,000  Level New York Center
06:30AM 41.2967 -76.5672 196° South 263 303 16,000  Level New York Center
06:31AM 41.2264 -76.5972 198° South 263 303 16,000  Level New York Center
06:32AM 41.1564 -76.6242 196° South 271 312 16,000  Level New York Center
06:33AM 41.0925 -76.6517 198° South 271 312 16,000  Level New York Center
06:34AM 41.0158 -76.6836 197° South 271 312 16,000  Level New York Center
06:35AM 40.9539 -76.7139 200° South 271 312 16,000  Level New York Center
06:36AM 40.8753 -76.7456 197° South 271 312 16,000  Level New York Center
06:37AM 40.8136 -76.7703 197° South 277 319 16,000  Level New York Center
06:38AM 40.7431 -76.8025 199° South 270 311 16,000  Level New York Center
06:39AM 40.6644 -76.8311 195° South 270 311 16,000  Level New York Center
06:40AM 40.6008 -76.8556 196° South 270 311 16,000  Level New York Center
06:41AM 40.5219 -76.8897 198° South 275 316 16,000  Level New York Center
06:42AM 40.4581 -76.9139 196° South 275 316 16,000 -300 Level New York Center
06:43AM 40.3878 -76.9431 198° South 275 316 15,400 -780 Descending New York Center
06:46AM 40.2167 -77.0167 198° South 278 320 13,600 -960 Descending Potomac TRACON
06:47AM 40.1500 -77.0333 191° South 272 313 12,400 -1,380 Descending Potomac TRACON
06:48AM 40.0833 -77.0667 201° Southwest 250 288 10,900 -1,560 Descending Potomac TRACON
06:49AM 40.0167 -77.0833 191° South 240 276 9,500 -1,080 Descending Potomac TRACON
06:49AM 39.9667 -77.1167 207° Southwest 225 259 9,000 -300 Descending Potomac TRACON
06:50AM 39.9000 -77.1333 191° South 231 266 9,000 -60 Level Potomac TRACON
06:51AM 39.8500 -77.1500 194° South 233 268 8,900 -360 Descending Potomac TRACON
06:52AM 39.8000 -77.2000 218° Southwest 237 273 8,400 -480 Descending Potomac TRACON
06:53AM 39.7500 -77.2500 218° Southwest 245 282 8,000 -240 Descending Potomac TRACON
06:54AM 39.7000 -77.2833 207° Southwest 240 276 8,000 -120 Level Potomac TRACON
06:55AM 39.6167 -77.3333 205° Southwest 246 283 7,800 -480 Descending Potomac TRACON
06:56AM 39.5667 -77.3500 194° South 260 299 7,100 -420 Descending Potomac TRACON
06:57AM 39.4833 -77.3500 180° South 239 275 7,000 -60 Descending Potomac TRACON
06:58AM 39.4167 -77.3667 191° South 246 283 7,000 -360 Level Potomac TRACON
06:59AM 39.3667 -77.3667 180° South 249 287 6,400 -840 Descending Potomac TRACON
07:00AM 39.3000 -77.3667 180° South 243 280 5,400 -960 Descending Potomac TRACON
07:01AM 39.2333 -77.3667 180° South 238 274 4,500 -720 Descending Potomac TRACON
07:02AM 39.1667 -77.3500 169° South 242 278 4,000 -300 Descending Potomac TRACON
07:03AM 39.1000 -77.3500 180° South 241 277 4,000  Level Potomac TRACON
07:04AM 39.0333 -77.3500 180° South 246 283 4,000  Level Potomac TRACON
07:05AM 38.9667 -77.3500 180° South 248 285 4,000  Level Potomac TRACON
07:06AM 38.9000 -77.3500 180° South 221 254 4,000 -360 Level Potomac TRACON
07:07AM 38.8500 -77.3667 195° South 194 223 3,300 -780 Descending Potomac TRACON
07:08AM 38.8000 -77.3833 195° South 186 214 2,500 -780 Descending Potomac TRACON
07:09AM 38.8167 -77.4333 293° West 161 185 1,800 -540 Descending Potomac TRACON
07:10AM 38.8667 -77.4333 360° North 158 182 1,500 -600 Descending Potomac TRACON
07:11AM 38.9000 -77.4333 360° North 122 140 700 -840 Descending Potomac TRACON
07:13AM 38.9333 -77.4500 349° North  Level FlightAware Approximate
07:20AM 38.9474 -77.4599 349° North  Level Estimated